createdAt,value
2018-11-06T00:00:54.192Z,25.13
2018-11-06T00:01:54.195Z,25.09
2018-11-06T00:02:54.201Z,25.10
2018-11-06T00:03:54.210Z,25.15
2018-11-06T00:04:54.212Z,25.18
2018-11-06T00:05:54.215Z,25.14
2018-11-06T00:06:54.221Z,25.14
2018-11-06T00:07:54.224Z,25.13
2018-11-06T00:08:54.230Z,25.10
2018-11-06T00:09:54.234Z,25.13
2018-11-06T00:10:54.239Z,25.08
2018-11-06T00:11:54.243Z,25.17
2018-11-06T00:12:54.248Z,25.15
2018-11-06T00:13:54.253Z,25.08
2018-11-06T00:14:54.293Z,25.10
2018-11-06T00:15:54.265Z,25.09
2018-11-06T00:16:54.269Z,25.10
2018-11-06T00:17:54.294Z,25.10
2018-11-06T00:18:54.275Z,25.13
2018-11-06T00:19:54.281Z,25.17
2018-11-06T00:20:54.286Z,25.09
2018-11-06T00:21:54.294Z,25.08
2018-11-06T00:22:54.297Z,25.10
2018-11-06T00:23:54.300Z,25.14
2018-11-06T00:24:54.305Z,25.14
2018-11-06T00:25:54.308Z,25.10
2018-11-06T00:26:54.312Z,25.14
2018-11-06T00:27:54.362Z,25.09
2018-11-06T00:28:54.327Z,25.10
2018-11-06T00:29:54.330Z,25.18
2018-11-06T00:30:54.333Z,25.17
2018-11-06T00:31:54.336Z,25.13
2018-11-06T00:32:54.343Z,25.10
2018-11-06T00:33:54.350Z,25.13
2018-11-06T00:34:54.353Z,25.08
2018-11-06T00:35:54.356Z,25.08
2018-11-06T00:36:54.363Z,25.10
2018-11-06T00:37:54.365Z,25.10
2018-11-06T00:38:54.379Z,25.10
2018-11-06T00:39:54.377Z,25.08
2018-11-06T00:40:54.417Z,25.05
2018-11-06T00:41:54.396Z,25.09
2018-11-06T00:42:54.390Z,25.09
2018-11-06T00:43:54.395Z,25.06
2018-11-06T00:44:54.399Z,25.09
2018-11-06T00:45:54.410Z,25.09
2018-11-06T00:46:54.412Z,25.10
2018-11-06T00:47:54.413Z,25.06
2018-11-06T00:48:54.419Z,25.08
2018-11-06T00:49:54.422Z,25.09
2018-11-06T00:50:54.429Z,25.10
2018-11-06T00:51:54.432Z,25.10
2018-11-06T00:52:54.437Z,25.17
2018-11-06T00:53:54.442Z,25.13
2018-11-06T00:54:54.448Z,25.09
2018-11-06T00:55:54.451Z,25.10
2018-11-06T00:56:54.461Z,25.14
2018-11-06T00:57:54.470Z,25.17
2018-11-06T00:58:54.466Z,25.08
2018-11-06T00:59:54.471Z,25.13
2018-11-06T01:00:54.476Z,25.10
2018-11-06T01:01:54.480Z,25.10
2018-11-06T01:02:54.483Z,25.13
2018-11-06T01:03:54.491Z,25.13
2018-11-06T01:04:54.558Z,25.08
2018-11-06T01:05:54.497Z,25.15
2018-11-06T01:06:54.503Z,25.10
2018-11-06T01:07:54.510Z,25.15
2018-11-06T01:08:54.513Z,25.09
2018-11-06T01:09:54.518Z,25.09
2018-11-06T01:10:54.521Z,25.13
2018-11-06T01:11:54.526Z,25.10
2018-11-06T01:12:54.532Z,25.15
2018-11-06T01:13:54.569Z,25.15
2018-11-06T01:14:54.549Z,25.10
2018-11-06T01:15:54.547Z,25.09
2018-11-06T01:16:54.551Z,25.13
2018-11-06T01:17:54.559Z,25.09
2018-11-06T01:18:54.561Z,25.13
2018-11-06T01:19:54.564Z,25.17
2018-11-06T01:20:54.570Z,25.14
2018-11-06T01:21:54.573Z,25.10
2018-11-06T01:22:54.579Z,25.10
2018-11-06T01:23:54.584Z,25.13
2018-11-06T01:24:54.589Z,25.13
2018-11-06T01:25:54.596Z,25.13
2018-11-06T01:26:54.597Z,25.13
2018-11-06T01:27:54.602Z,25.09
2018-11-06T01:28:54.607Z,25.10
2018-11-06T01:29:54.611Z,25.13
2018-11-06T01:30:54.616Z,25.18
2018-11-06T01:31:54.624Z,25.20
2018-11-06T01:32:54.630Z,25.09
2018-11-06T01:33:54.632Z,25.17
2018-11-06T01:34:54.653Z,25.13
2018-11-06T01:35:54.639Z,25.14
2018-11-06T01:36:54.645Z,25.14
2018-11-06T01:37:54.648Z,25.18
2018-11-06T01:38:54.657Z,25.18
2018-11-06T01:39:54.661Z,25.09
2018-11-06T01:40:54.664Z,25.14
2018-11-06T01:41:54.665Z,25.18
2018-11-06T01:42:54.672Z,25.14
2018-11-06T01:43:54.677Z,25.13
2018-11-06T01:44:54.685Z,25.13
2018-11-06T01:45:54.687Z,25.14
2018-11-06T01:46:54.692Z,25.13
2018-11-06T01:47:54.696Z,25.13
2018-11-06T01:48:54.701Z,25.10
2018-11-06T01:49:54.708Z,25.10
2018-11-06T01:50:54.710Z,25.17
2018-11-06T01:51:54.716Z,25.10
2018-11-06T01:52:54.722Z,25.08
2018-11-06T01:53:54.724Z,25.17
2018-11-06T01:54:54.731Z,25.17
2018-11-06T01:55:54.736Z,25.09
2018-11-06T01:56:54.742Z,25.08
2018-11-06T01:57:54.744Z,25.17
2018-11-06T01:58:54.749Z,25.14
2018-11-06T01:59:54.753Z,25.09
2018-11-06T02:00:54.759Z,25.13
2018-11-06T02:01:54.766Z,25.10
2018-11-06T02:02:54.768Z,25.14
2018-11-06T02:03:54.772Z,25.09
2018-11-06T02:04:54.778Z,25.15
2018-11-06T02:05:54.782Z,25.10
2018-11-06T02:06:54.786Z,25.10
2018-11-06T02:07:54.792Z,25.17
2018-11-06T02:08:54.797Z,25.09
2018-11-06T02:09:54.801Z,25.10
2018-11-06T02:10:54.805Z,25.10
2018-11-06T02:11:54.814Z,25.08
2018-11-06T02:12:54.815Z,25.14
2018-11-06T02:13:54.818Z,25.14
2018-11-06T02:14:54.824Z,25.13
2018-11-06T02:15:54.828Z,25.14
2018-11-06T02:16:54.840Z,25.13
2018-11-06T02:17:54.866Z,25.13
2018-11-06T02:18:54.844Z,25.09
2018-11-06T02:19:54.849Z,25.14
2018-11-06T02:20:54.852Z,25.23
2018-11-06T02:21:54.859Z,25.18
2018-11-06T02:22:54.862Z,25.21
2018-11-06T02:23:54.866Z,25.15
2018-11-06T02:24:54.872Z,25.09
2018-11-06T02:25:54.877Z,25.14
2018-11-06T02:26:54.891Z,25.15
2018-11-06T02:27:54.896Z,25.15
2018-11-06T02:28:54.893Z,25.14
2018-11-06T02:29:54.895Z,25.15
2018-11-06T02:30:54.899Z,25.14
2018-11-06T02:31:54.917Z,25.10
2018-11-06T02:32:54.911Z,25.13
2018-11-06T02:33:54.919Z,25.14
2018-11-06T02:34:54.922Z,25.15
2018-11-06T02:35:54.927Z,25.18
2018-11-06T02:36:54.951Z,25.14
2018-11-06T02:37:54.983Z,25.14
2018-11-06T02:38:54.961Z,25.14
2018-11-06T02:39:54.943Z,25.13
2018-11-06T02:40:54.949Z,25.17
2018-11-06T02:41:54.952Z,25.15
2018-11-06T02:42:55.002Z,25.21
2018-11-06T02:43:54.968Z,25.13
2018-11-06T02:44:54.966Z,25.15
2018-11-06T02:45:55.046Z,25.18
2018-11-06T02:46:54.975Z,25.14
2018-11-06T02:47:54.981Z,25.15
2018-11-06T02:48:54.989Z,25.15
2018-11-06T02:49:54.997Z,25.18
2018-11-06T02:50:54.996Z,25.14
2018-11-06T02:51:55.007Z,25.15
2018-11-06T02:52:55.005Z,25.18
2018-11-06T02:53:55.008Z,25.13
2018-11-06T02:54:55.014Z,25.14
2018-11-06T02:55:55.097Z,25.14
2018-11-06T02:56:55.024Z,25.13
2018-11-06T02:57:55.030Z,25.17
2018-11-06T02:58:55.109Z,25.13
2018-11-06T02:59:55.037Z,25.14
2018-11-06T03:00:55.047Z,25.15
2018-11-06T03:01:55.101Z,25.10
2018-11-06T03:02:55.051Z,25.13
2018-11-06T03:03:55.059Z,25.15
2018-11-06T03:04:55.104Z,25.14
2018-11-06T03:05:55.066Z,25.14
2018-11-06T03:06:55.070Z,25.14
2018-11-06T03:07:55.078Z,25.14
2018-11-06T03:08:55.080Z,25.21
2018-11-06T03:09:55.084Z,25.20
2018-11-06T03:10:55.090Z,25.15
2018-11-06T03:11:55.099Z,25.18
2018-11-06T03:12:55.106Z,25.13
2018-11-06T03:13:55.103Z,25.13
2018-11-06T03:14:55.151Z,25.14
2018-11-06T03:15:55.113Z,25.23
2018-11-06T03:16:55.193Z,25.17
2018-11-06T03:17:55.125Z,25.15
2018-11-06T03:18:55.130Z,25.13
2018-11-06T03:19:55.132Z,25.10
2018-11-06T03:20:55.138Z,25.21
2018-11-06T03:21:55.152Z,25.14
2018-11-06T03:22:55.150Z,25.20
2018-11-06T03:23:55.172Z,25.14
2018-11-06T03:24:55.166Z,25.17
2018-11-06T03:25:55.160Z,25.15
2018-11-06T03:26:55.383Z,25.18
2018-11-06T03:27:55.174Z,25.15
2018-11-06T03:28:55.175Z,25.14
2018-11-06T03:29:55.186Z,25.14
2018-11-06T03:30:55.186Z,25.15
2018-11-06T03:31:55.189Z,25.18
2018-11-06T03:32:55.196Z,25.15
2018-11-06T03:33:55.199Z,25.10
2018-11-06T03:34:55.205Z,25.13
2018-11-06T03:35:55.208Z,25.14
2018-11-06T03:36:55.213Z,25.18
2018-11-06T03:37:55.218Z,25.20
2018-11-06T03:38:55.223Z,25.20
2018-11-06T03:39:55.227Z,25.17
2018-11-06T03:40:55.237Z,25.15
2018-11-06T03:41:55.240Z,25.20
2018-11-06T03:42:55.254Z,25.15
2018-11-06T03:43:55.247Z,25.15
2018-11-06T03:44:55.252Z,25.23
2018-11-06T03:45:55.255Z,25.17
2018-11-06T03:46:55.261Z,25.18
2018-11-06T03:47:55.267Z,25.17
2018-11-06T03:48:55.314Z,25.13
2018-11-06T03:49:55.276Z,25.18
2018-11-06T03:50:55.287Z,25.17
2018-11-06T03:51:55.595Z,25.17
2018-11-06T03:52:55.290Z,25.18
2018-11-06T03:53:55.295Z,25.21
2018-11-06T03:54:55.301Z,25.18
2018-11-06T03:55:55.303Z,25.17
2018-11-06T03:56:55.307Z,25.21
2018-11-06T03:57:55.313Z,25.15
2018-11-06T03:58:55.316Z,25.21
2018-11-06T03:59:55.323Z,25.17
2018-11-06T04:00:55.400Z,25.25
2018-11-06T04:01:55.331Z,25.15
2018-11-06T04:02:55.344Z,25.15
2018-11-06T04:03:55.391Z,25.21
2018-11-06T04:04:55.349Z,25.15
2018-11-06T04:05:55.350Z,25.24
2018-11-06T04:06:55.370Z,25.24
2018-11-06T04:07:55.363Z,25.14
2018-11-06T04:08:55.368Z,25.20
2018-11-06T04:09:55.369Z,25.23
2018-11-06T04:10:55.377Z,25.24
2018-11-06T04:11:55.381Z,25.10
2018-11-06T04:12:55.398Z,25.20
2018-11-06T04:13:55.405Z,25.20
2018-11-06T04:14:55.404Z,25.18
2018-11-06T04:15:55.435Z,25.20
2018-11-06T04:16:55.420Z,25.21
2018-11-06T04:17:55.409Z,25.13
2018-11-06T04:18:55.414Z,25.20
2018-11-06T04:19:55.418Z,25.17
2018-11-06T04:20:55.423Z,25.15
2018-11-06T04:21:55.522Z,25.18
2018-11-06T04:22:55.432Z,25.15
2018-11-06T04:23:55.439Z,25.20
2018-11-06T04:24:55.443Z,25.20
2018-11-06T04:25:55.446Z,25.18
2018-11-06T04:26:55.452Z,25.15
2018-11-06T04:27:55.483Z,25.18
2018-11-06T04:28:55.463Z,25.18
2018-11-06T04:29:55.465Z,25.24
2018-11-06T04:30:55.483Z,25.15
2018-11-06T04:31:55.478Z,25.20
2018-11-06T04:32:55.480Z,25.21
2018-11-06T04:33:55.484Z,25.17
2018-11-06T04:34:55.489Z,25.21
2018-11-06T04:35:55.495Z,25.27
2018-11-06T04:36:55.504Z,25.23
2018-11-06T04:37:55.504Z,25.20
2018-11-06T04:38:55.512Z,25.17
2018-11-06T04:39:55.514Z,25.14
2018-11-06T04:40:55.522Z,25.21
2018-11-06T04:41:55.521Z,25.18
2018-11-06T04:42:55.531Z,25.23
2018-11-06T04:43:55.532Z,25.20
2018-11-06T04:44:55.537Z,25.24
2018-11-06T04:45:55.543Z,25.20
2018-11-06T04:46:55.547Z,25.21
2018-11-06T04:47:55.552Z,25.15
2018-11-06T04:48:55.556Z,25.17
2018-11-06T04:49:55.560Z,25.20
2018-11-06T04:50:55.565Z,25.18
2018-11-06T04:51:55.570Z,25.21
2018-11-06T04:52:55.616Z,25.17
2018-11-06T04:53:55.579Z,25.18
2018-11-06T04:54:55.590Z,25.20
2018-11-06T04:55:55.590Z,25.18
2018-11-06T04:56:55.611Z,25.20
2018-11-06T04:57:55.598Z,25.17
2018-11-06T04:58:55.603Z,25.14
2018-11-06T04:59:55.608Z,25.21
2018-11-06T05:00:55.614Z,25.18
2018-11-06T05:01:55.648Z,25.20
2018-11-06T05:02:55.623Z,25.18
2018-11-06T05:03:55.628Z,25.18
2018-11-06T05:04:55.632Z,25.23
2018-11-06T05:05:55.637Z,25.17
2018-11-06T05:06:55.712Z,25.20
2018-11-06T05:07:55.713Z,25.21
2018-11-06T05:08:55.652Z,25.17
2018-11-06T05:09:55.657Z,25.18
2018-11-06T05:10:55.730Z,25.18
2018-11-06T05:11:55.665Z,25.14
2018-11-06T05:12:55.672Z,25.15
2018-11-06T05:13:55.745Z,25.14
2018-11-06T05:14:55.687Z,25.17
2018-11-06T05:15:55.689Z,25.10
2018-11-06T05:16:55.691Z,25.10
2018-11-06T05:17:55.694Z,25.10
2018-11-06T05:18:55.700Z,25.14
2018-11-06T05:19:55.705Z,25.13
2018-11-06T05:20:55.708Z,25.08
2018-11-06T05:21:55.712Z,25.06
2018-11-06T05:22:55.717Z,25.15
2018-11-06T05:23:55.769Z,25.08
2018-11-06T05:24:55.727Z,25.05
2018-11-06T05:25:55.731Z,25.00
2018-11-06T05:26:55.793Z,25.06
2018-11-06T05:27:55.754Z,25.08
2018-11-06T05:28:55.747Z,25.09
2018-11-06T05:29:55.750Z,25.02
2018-11-06T05:30:55.761Z,25.06
2018-11-06T05:31:55.761Z,25.00
2018-11-06T05:32:55.860Z,25.09
2018-11-06T05:33:55.769Z,25.08
2018-11-06T05:34:55.849Z,25.08
2018-11-06T05:35:55.782Z,25.02
2018-11-06T05:36:55.784Z,25.05
2018-11-06T05:37:55.787Z,24.98
2018-11-06T05:38:55.832Z,25.02
2018-11-06T05:39:55.804Z,25.06
2018-11-06T05:40:55.837Z,25.06
2018-11-06T05:41:55.806Z,25.08
2018-11-06T05:42:55.872Z,25.03
2018-11-06T05:43:55.895Z,25.08
2018-11-06T05:44:55.822Z,25.10
2018-11-06T05:45:55.827Z,25.17
2018-11-06T05:46:55.829Z,25.17
2018-11-06T05:47:55.838Z,25.15
2018-11-06T05:48:55.840Z,25.13
2018-11-06T05:49:55.846Z,25.17
2018-11-06T05:50:55.849Z,25.18
2018-11-06T05:51:55.853Z,25.20
2018-11-06T05:52:55.860Z,25.20
2018-11-06T05:53:55.864Z,25.18
2018-11-06T05:54:55.867Z,25.14
2018-11-06T05:55:55.872Z,25.21
2018-11-06T05:56:55.881Z,25.20
2018-11-06T05:57:55.883Z,25.24
2018-11-06T05:58:55.886Z,25.23
2018-11-06T05:59:55.892Z,25.25
2018-11-06T06:00:55.896Z,25.20
2018-11-06T06:01:55.899Z,25.28
2018-11-06T06:02:55.909Z,25.28
2018-11-06T06:03:55.911Z,25.32
2018-11-06T06:04:55.915Z,25.35
2018-11-06T06:05:55.919Z,25.35
2018-11-06T06:06:55.923Z,25.35
2018-11-06T06:07:55.930Z,25.30
2018-11-06T06:08:55.934Z,25.28
2018-11-06T06:09:55.940Z,25.35
2018-11-06T06:10:55.952Z,25.36
2018-11-06T06:11:55.949Z,25.39
2018-11-06T06:12:55.953Z,25.42
2018-11-06T06:13:55.962Z,25.43
2018-11-06T06:14:55.965Z,25.39
2018-11-06T06:15:55.966Z,25.42
2018-11-06T06:16:56.028Z,25.39
2018-11-06T06:17:55.976Z,25.42
2018-11-06T06:18:56.052Z,25.46
2018-11-06T06:19:55.987Z,25.46
2018-11-06T06:20:55.991Z,25.46
2018-11-06T06:21:55.998Z,25.45
2018-11-06T06:22:55.999Z,25.50
2018-11-06T06:23:56.005Z,25.39
2018-11-06T06:24:56.012Z,25.46
2018-11-06T06:25:56.015Z,25.46
2018-11-06T06:26:56.021Z,25.45
2018-11-06T06:27:56.027Z,25.46
2018-11-06T06:28:56.031Z,25.47
2018-11-06T06:29:56.036Z,25.51
2018-11-06T06:30:56.040Z,25.45
2018-11-06T06:31:56.046Z,25.51
2018-11-06T06:32:56.052Z,25.58
2018-11-06T06:33:56.056Z,25.50
2018-11-06T06:34:56.125Z,25.57
2018-11-06T06:35:56.156Z,25.51
2018-11-06T06:36:56.071Z,25.54
2018-11-06T06:37:56.078Z,25.57
2018-11-06T06:38:56.078Z,25.52
2018-11-06T06:39:56.127Z,25.47
2018-11-06T06:40:56.181Z,25.57
2018-11-06T06:41:56.094Z,25.51
2018-11-06T06:42:56.099Z,25.51
2018-11-06T06:43:56.120Z,25.50
2018-11-06T06:44:56.111Z,25.54
2018-11-06T06:45:56.112Z,25.50
2018-11-06T06:46:56.167Z,25.58
2018-11-06T06:47:56.122Z,25.45
2018-11-06T06:48:56.128Z,25.51
2018-11-06T06:49:56.167Z,25.54
2018-11-06T06:50:56.136Z,25.61
2018-11-06T06:51:56.141Z,25.58
2018-11-06T06:52:56.149Z,25.50
2018-11-06T06:53:56.185Z,25.54
2018-11-06T06:54:56.228Z,25.54
2018-11-06T06:55:56.162Z,25.61
2018-11-06T06:56:56.165Z,25.57
2018-11-06T06:57:56.175Z,25.60
2018-11-06T06:58:56.176Z,25.64
2018-11-06T06:59:56.239Z,25.64
2018-11-06T07:00:56.186Z,25.60
2018-11-06T07:01:56.194Z,25.58
2018-11-06T07:02:56.196Z,25.65
2018-11-06T07:03:56.201Z,25.65
2018-11-06T07:04:56.259Z,25.62
2018-11-06T07:05:56.209Z,25.67
2018-11-06T07:06:56.216Z,25.61
2018-11-06T07:07:56.221Z,25.73
2018-11-06T07:08:56.309Z,25.61
2018-11-06T07:09:56.237Z,25.60
2018-11-06T07:10:56.244Z,25.62
2018-11-06T07:11:56.242Z,25.75
2018-11-06T07:12:56.294Z,25.57
2018-11-06T07:13:56.254Z,25.69
2018-11-06T07:14:56.286Z,25.65
2018-11-06T07:15:56.262Z,25.70
2018-11-06T07:16:56.264Z,25.73
2018-11-06T07:17:56.272Z,25.67
2018-11-06T07:18:56.276Z,25.72
2018-11-06T07:19:56.282Z,25.70
2018-11-06T07:20:56.287Z,25.72
2018-11-06T07:21:56.290Z,25.77
2018-11-06T07:22:56.299Z,25.72
2018-11-06T07:23:56.304Z,25.77
2018-11-06T07:24:56.307Z,25.75
2018-11-06T07:25:56.314Z,25.80
2018-11-06T07:26:56.316Z,25.82
2018-11-06T07:27:56.320Z,25.79
2018-11-06T07:28:56.372Z,25.77
2018-11-06T07:29:56.330Z,25.88
2018-11-06T07:30:56.363Z,25.88
2018-11-06T07:31:56.344Z,25.76
2018-11-06T07:32:56.352Z,25.85
2018-11-06T07:33:56.370Z,25.91
2018-11-06T07:34:56.659Z,25.88
2018-11-06T07:35:56.396Z,25.90
2018-11-06T07:36:56.370Z,25.92
2018-11-06T07:37:56.371Z,25.90
2018-11-06T07:38:56.388Z,25.88
2018-11-06T07:39:56.383Z,25.92
2018-11-06T07:40:56.478Z,25.94
2018-11-06T07:41:56.392Z,25.92
2018-11-06T07:42:56.398Z,25.91
2018-11-06T07:43:56.403Z,25.92
2018-11-06T07:44:56.407Z,25.90
2018-11-06T07:45:56.411Z,25.97
2018-11-06T07:46:56.416Z,25.91
2018-11-06T07:47:56.421Z,25.98
2018-11-06T07:48:56.426Z,25.97
2018-11-06T07:49:56.574Z,25.99
2018-11-06T07:50:56.437Z,26.01
2018-11-06T07:51:56.448Z,25.95
2018-11-06T07:52:56.456Z,25.99
2018-11-06T07:53:56.497Z,25.94
2018-11-06T07:54:56.460Z,26.05
2018-11-06T07:55:56.465Z,25.99
2018-11-06T07:56:56.468Z,25.98
2018-11-06T07:57:56.475Z,26.02
2018-11-06T07:58:56.479Z,26.01
2018-11-06T07:59:56.484Z,26.09
2018-11-06T08:00:56.489Z,25.95
2018-11-06T08:01:56.495Z,25.94
2018-11-06T08:02:56.501Z,26.12
2018-11-06T08:03:56.590Z,26.02
2018-11-06T08:04:56.520Z,25.98
2018-11-06T08:05:56.515Z,26.05
2018-11-06T08:06:56.520Z,25.99
2018-11-06T08:07:56.548Z,26.13
2018-11-06T08:08:56.532Z,26.13
2018-11-06T08:09:56.603Z,25.99
2018-11-06T08:10:56.544Z,26.13
2018-11-06T08:11:56.548Z,26.05
2018-11-06T08:12:56.555Z,26.12
2018-11-06T08:13:56.558Z,26.15
2018-11-06T08:14:56.627Z,26.10
2018-11-06T08:15:56.569Z,26.10
2018-11-06T08:16:56.571Z,26.12
2018-11-06T08:17:56.588Z,26.15
2018-11-06T08:18:56.584Z,26.09
2018-11-06T08:19:56.589Z,26.09
2018-11-06T08:20:56.594Z,26.12
2018-11-06T08:21:56.603Z,26.13
2018-11-06T08:22:56.605Z,26.10
2018-11-06T08:23:56.644Z,26.12
2018-11-06T08:24:56.614Z,26.06
2018-11-06T08:25:56.620Z,26.15
2018-11-06T08:26:56.643Z,26.10
2018-11-06T08:27:56.793Z,26.23
2018-11-06T08:28:56.636Z,26.13
2018-11-06T08:29:56.644Z,26.09
2018-11-06T08:30:56.870Z,26.23
2018-11-06T08:31:57.047Z,26.12
2018-11-06T08:32:56.661Z,26.20
2018-11-06T08:33:56.663Z,26.10
2018-11-06T08:34:56.680Z,26.21
2018-11-06T08:35:56.676Z,26.21
2018-11-06T08:36:56.703Z,26.20
2018-11-06T08:37:56.685Z,26.17
2018-11-06T08:38:56.731Z,26.18
2018-11-06T08:39:56.695Z,26.26
2018-11-06T08:40:56.701Z,26.26
2018-11-06T08:41:56.706Z,26.18
2018-11-06T08:42:56.713Z,26.25
2018-11-06T08:43:56.717Z,26.26
2018-11-06T08:44:56.755Z,26.26
2018-11-06T08:45:56.728Z,26.25
2018-11-06T08:46:56.735Z,26.21
2018-11-06T08:47:56.767Z,26.20
2018-11-06T08:48:56.742Z,26.25
2018-11-06T08:49:56.747Z,26.21
2018-11-06T08:50:56.770Z,26.26
2018-11-06T08:51:56.778Z,26.35
2018-11-06T08:52:56.766Z,26.32
2018-11-06T08:53:56.768Z,26.33
2018-11-06T08:54:56.777Z,26.28
2018-11-06T08:55:56.783Z,26.33
2018-11-06T08:56:56.785Z,26.28
2018-11-06T08:57:56.790Z,26.32
2018-11-06T08:58:56.805Z,26.30
2018-11-06T08:59:56.809Z,26.36
2018-11-06T09:00:56.818Z,26.35
2018-11-06T09:01:56.811Z,26.36
2018-11-06T09:02:56.818Z,26.33
2018-11-06T09:03:56.824Z,26.43
2018-11-06T09:04:56.829Z,26.44
2018-11-06T09:05:56.843Z,26.45
2018-11-06T09:06:56.840Z,26.43
2018-11-06T09:07:56.846Z,26.33
2018-11-06T09:08:56.946Z,26.39
2018-11-06T09:09:56.860Z,26.39
2018-11-06T09:10:56.879Z,26.44
2018-11-06T09:11:56.872Z,26.47
2018-11-06T09:12:56.894Z,26.45
2018-11-06T09:13:56.879Z,26.45
2018-11-06T09:14:56.910Z,26.43
2018-11-06T09:15:56.892Z,26.39
2018-11-06T09:16:56.965Z,26.44
2018-11-06T09:17:56.911Z,26.47
2018-11-06T09:18:56.905Z,26.45
2018-11-06T09:19:56.920Z,26.44
2018-11-06T09:20:56.914Z,26.39
2018-11-06T09:21:56.929Z,26.43
2018-11-06T09:22:56.925Z,26.43
2018-11-06T09:23:56.932Z,26.45
2018-11-06T09:24:56.936Z,26.36
2018-11-06T09:25:56.947Z,26.39
2018-11-06T09:26:56.960Z,26.40
2018-11-06T09:27:56.961Z,26.40
2018-11-06T09:28:56.960Z,26.36
2018-11-06T09:29:56.966Z,26.40
2018-11-06T09:30:57.026Z,26.35
2018-11-06T09:31:56.975Z,26.35
2018-11-06T09:32:56.979Z,26.35
2018-11-06T09:33:56.988Z,26.36
2018-11-06T09:34:56.989Z,26.25
2018-11-06T09:35:57.002Z,26.36
2018-11-06T09:36:57.003Z,26.33
2018-11-06T09:37:57.007Z,26.25
2018-11-06T09:38:57.016Z,26.30
2018-11-06T09:39:57.016Z,26.30
2018-11-06T09:40:57.045Z,26.29
2018-11-06T09:41:57.027Z,26.30
2018-11-06T09:42:57.036Z,26.20
2018-11-06T09:43:57.038Z,26.21
2018-11-06T09:44:57.107Z,26.25
2018-11-06T09:45:57.057Z,26.25
2018-11-06T09:46:57.054Z,26.23
2018-11-06T09:47:57.111Z,26.25
2018-11-06T09:48:57.091Z,26.20
2018-11-06T09:49:57.073Z,26.26
2018-11-06T09:50:57.092Z,26.20
2018-11-06T09:51:57.094Z,26.18
2018-11-06T09:52:57.087Z,26.20
2018-11-06T09:53:57.136Z,26.21
2018-11-06T09:54:57.097Z,26.12
2018-11-06T09:55:57.101Z,26.15
2018-11-06T09:56:57.108Z,26.07
2018-11-06T09:57:57.113Z,26.13
2018-11-06T09:58:57.118Z,26.13
2018-11-06T09:59:57.156Z,26.10
2018-11-06T10:00:57.147Z,26.15
2018-11-06T10:01:57.139Z,26.07
2018-11-06T10:02:57.139Z,26.01
2018-11-06T10:03:57.144Z,26.01
2018-11-06T10:04:57.151Z,25.98
2018-11-06T10:05:57.153Z,25.97
2018-11-06T10:06:57.508Z,26.05
2018-11-06T10:07:57.199Z,26.01
2018-11-06T10:08:57.170Z,25.98
2018-11-06T10:09:57.176Z,25.99
2018-11-06T10:10:57.181Z,25.95
2018-11-06T10:11:57.187Z,26.01
2018-11-06T10:12:57.191Z,25.98
2018-11-06T10:13:57.197Z,25.97
2018-11-06T10:14:57.206Z,26.01
2018-11-06T10:15:57.231Z,25.98
2018-11-06T10:16:57.243Z,25.92
2018-11-06T10:17:57.217Z,25.94
2018-11-06T10:18:57.222Z,25.99
2018-11-06T10:19:57.228Z,25.92
2018-11-06T10:20:57.233Z,25.91
2018-11-06T10:21:57.237Z,25.94
2018-11-06T10:22:57.244Z,25.92
2018-11-06T10:23:57.250Z,25.91
2018-11-06T10:24:57.254Z,25.91
2018-11-06T10:25:57.260Z,25.92
2018-11-06T10:26:57.276Z,25.92
2018-11-06T10:27:57.272Z,25.90
2018-11-06T10:28:57.276Z,25.91
2018-11-06T10:29:57.280Z,25.88
2018-11-06T10:30:57.392Z,25.94
2018-11-06T10:31:57.292Z,25.91
2018-11-06T10:32:57.299Z,25.87
2018-11-06T10:33:57.348Z,25.88
2018-11-06T10:34:57.308Z,25.91
2018-11-06T10:35:57.311Z,25.91
2018-11-06T10:36:57.504Z,25.85
2018-11-06T10:37:57.328Z,25.88
2018-11-06T10:38:57.328Z,25.90
2018-11-06T10:39:57.338Z,25.91
2018-11-06T10:40:57.337Z,25.90
2018-11-06T10:41:57.342Z,25.90
2018-11-06T10:42:57.349Z,25.91
2018-11-06T10:43:57.352Z,25.91
2018-11-06T10:44:57.357Z,25.87
2018-11-06T10:45:57.372Z,25.82
2018-11-06T10:46:57.368Z,25.94
2018-11-06T10:47:57.373Z,25.90
2018-11-06T10:48:57.380Z,25.85
2018-11-06T10:49:57.393Z,25.83
2018-11-06T10:50:57.396Z,25.87
2018-11-06T10:51:57.582Z,25.94
2018-11-06T10:52:57.400Z,25.90
2018-11-06T10:53:57.403Z,25.90
2018-11-06T10:54:57.411Z,25.92
2018-11-06T10:55:57.414Z,25.90
2018-11-06T10:56:57.420Z,25.94
2018-11-06T10:57:57.479Z,25.90
2018-11-06T10:58:57.433Z,25.90
2018-11-06T10:59:57.438Z,25.88
2018-11-06T11:00:57.445Z,25.92
2018-11-06T11:01:57.447Z,25.94
2018-11-06T11:02:57.455Z,25.95
2018-11-06T11:03:57.500Z,25.91
2018-11-06T11:04:57.460Z,25.92
2018-11-06T11:05:57.468Z,25.94
2018-11-06T11:06:57.481Z,25.95
2018-11-06T11:07:57.476Z,25.88
2018-11-06T11:08:57.481Z,25.88
2018-11-06T11:09:57.487Z,25.91
2018-11-06T11:10:57.492Z,25.92
2018-11-06T11:11:57.495Z,25.91
2018-11-06T11:12:57.501Z,25.94
2018-11-06T11:13:57.506Z,25.95
2018-11-06T11:14:57.514Z,25.91
2018-11-06T11:15:57.516Z,25.90
2018-11-06T11:16:57.524Z,25.87
2018-11-06T11:17:57.528Z,25.90
2018-11-06T11:18:57.531Z,25.91
2018-11-06T11:19:57.542Z,25.88
2018-11-06T11:20:57.573Z,25.91
2018-11-06T11:21:57.546Z,25.95
2018-11-06T11:22:57.562Z,25.88
2018-11-06T11:23:57.562Z,25.90
2018-11-06T11:24:57.566Z,25.87
2018-11-06T11:25:57.568Z,25.83
2018-11-06T11:26:57.574Z,25.87
2018-11-06T11:27:57.582Z,25.87
2018-11-06T11:28:57.583Z,25.85
2018-11-06T11:29:57.589Z,25.90
2018-11-06T11:30:57.601Z,25.83
2018-11-06T11:31:57.604Z,25.83
2018-11-06T11:32:57.601Z,25.88
2018-11-06T11:33:57.698Z,25.83
2018-11-06T11:34:57.730Z,25.83
2018-11-06T11:35:57.620Z,25.82
2018-11-06T11:36:57.625Z,25.85
2018-11-06T11:37:57.639Z,25.87
2018-11-06T11:38:57.636Z,25.85
2018-11-06T11:39:57.641Z,25.85
2018-11-06T11:40:57.647Z,25.83
2018-11-06T11:41:57.652Z,25.76
2018-11-06T11:42:57.657Z,25.80
2018-11-06T11:43:57.664Z,25.83
2018-11-06T11:44:57.695Z,25.88
2018-11-06T11:45:57.761Z,25.79
2018-11-06T11:46:57.680Z,25.85
2018-11-06T11:47:57.734Z,25.80
2018-11-06T11:48:57.685Z,25.75
2018-11-06T11:49:57.702Z,25.82
2018-11-06T11:50:57.693Z,25.85
2018-11-06T11:51:57.702Z,25.79
2018-11-06T11:52:57.708Z,25.83
2018-11-06T11:53:57.723Z,25.79
2018-11-06T11:54:57.737Z,25.83
2018-11-06T11:55:57.720Z,25.79
2018-11-06T11:56:57.728Z,25.77
2018-11-06T11:57:57.736Z,25.79
2018-11-06T11:58:57.737Z,25.82
2018-11-06T11:59:57.781Z,25.76
2018-11-06T12:00:57.747Z,25.73
2018-11-06T12:01:57.805Z,25.77
2018-11-06T12:02:57.757Z,25.79
2018-11-06T12:03:57.761Z,25.75
2018-11-06T12:04:57.769Z,25.73
2018-11-06T12:05:57.774Z,25.76
2018-11-06T12:06:57.777Z,25.75
2018-11-06T12:07:57.784Z,25.75
2018-11-06T12:08:57.786Z,25.72
2018-11-06T12:09:57.797Z,25.73
2018-11-06T12:10:57.801Z,25.76
2018-11-06T12:11:57.806Z,25.79
2018-11-06T12:12:57.819Z,25.76
2018-11-06T12:13:57.820Z,25.77
2018-11-06T12:14:57.818Z,25.75
2018-11-06T12:15:57.826Z,25.75
2018-11-06T12:16:57.829Z,25.75
2018-11-06T12:17:57.870Z,25.72
2018-11-06T12:18:57.837Z,25.82
2018-11-06T12:19:57.845Z,25.77
2018-11-06T12:20:57.848Z,25.73
2018-11-06T12:21:57.853Z,25.75
2018-11-06T12:22:57.861Z,25.79
2018-11-06T12:23:57.920Z,25.79
2018-11-06T12:24:58.098Z,25.73
2018-11-06T12:25:57.875Z,25.75
2018-11-06T12:26:57.879Z,25.80
2018-11-06T12:27:57.886Z,25.82
2018-11-06T12:28:57.890Z,25.79
2018-11-06T12:29:57.899Z,25.77
2018-11-06T12:30:57.904Z,25.83
2018-11-06T12:31:57.902Z,25.72
2018-11-06T12:32:57.921Z,25.83
2018-11-06T12:33:57.921Z,25.87
2018-11-06T12:34:57.972Z,25.77
2018-11-06T12:35:57.924Z,25.77
2018-11-06T12:36:57.975Z,25.79
2018-11-06T12:37:57.934Z,25.88
2018-11-06T12:38:57.938Z,25.77
2018-11-06T12:39:57.944Z,25.79
2018-11-06T12:40:57.949Z,25.87
2018-11-06T12:41:57.970Z,25.79
2018-11-06T12:42:57.991Z,25.82
2018-11-06T12:43:57.964Z,25.83
2018-11-06T12:44:57.969Z,25.83
2018-11-06T12:45:57.976Z,25.85
2018-11-06T12:46:57.982Z,25.87
2018-11-06T12:47:58.088Z,25.88
2018-11-06T12:48:57.993Z,25.91
2018-11-06T12:49:57.996Z,25.94
2018-11-06T12:50:58.002Z,25.88
2018-11-06T12:51:58.007Z,25.87
2018-11-06T12:52:58.011Z,25.83